Time;durP1;ratioP1;P1;durP2;ratioP2;P2;SDS_P1;SDS_P2;PMS_P1;PMS_P2;Temp;Humidity;BMP_temperature;BMP_pressure;BME280_temperature;BME280_humidity;BME280_pressure;Samples;Min_cycle;Max_cycle;Signal;HPM_P1;HPM_P2
2021/01/28 00:01:40;;;;;;;;;14.25;13.25;;;;;9.87;72.05;99489.56;6253695;23;11428;-79
2021/01/28 00:04:22;;;;;;;;;13.00;13.00;;;;;9.65;72.44;99487.38;6222258;23;11525;-80
2021/01/28 00:06:50;;;;;;;;;15.50;15.50;;;;;9.83;71.74;99474.06;6254165;23;11416;-80
2021/01/28 00:09:25;;;;;;;;;13.75;13.75;;;;;9.49;73.17;99462.53;6252749;23;11427;-80
2021/01/28 00:11:52;;;;;;;;;15.50;15.50;;;;;9.84;71.90;99478.44;6227395;23;11420;-79
2021/01/28 00:14:34;;;;;;;;;19.25;18.00;;;;;9.80;71.83;99477.53;6221848;23;11487;-79
2021/01/28 00:17:29;;;;;;;;;18.75;18.00;;;;;9.87;71.49;99481.28;6223896;23;11452;-79
2021/01/28 00:19:57;;;;;;;;;21.50;20.25;;;;;9.77;71.70;99479.03;6227738;23;12086;-79
2021/01/28 00:22:25;;;;;;;;;22.50;18.75;;;;;9.53;71.87;99477.22;6228029;23;11395;-78
2021/01/28 00:24:53;;;;;;;;;14.00;14.00;;;;;9.43;71.83;99474.97;6254220;23;11502;-79
2021/01/28 00:27:21;;;;;;;;;12.75;12.75;;;;;9.68;71.01;99470.13;6252749;23;11385;-79
2021/01/28 00:29:48;;;;;;;;;21.25;20.50;;;;;9.73;71.24;99464.34;6222779;23;11444;-79
2021/01/28 00:32:30;;;;;;;;;22.00;20.50;;;;;9.63;71.22;99437.25;6222198;23;11520;-78
2021/01/28 00:34:57;;;;;;;;;7.75;7.75;;;;;9.61;71.34;99403.69;6227765;23;11413;-79
2021/01/28 00:37:39;;;;;;;;;15.00;13.00;;;;;9.53;71.58;99396.41;6221467;23;11471;-79
2021/01/28 00:40:21;;;;;;;;;18.00;17.25;;;;;9.53;70.87;99408.25;6243449;23;12153;-79
2021/01/28 00:42:53;;;;;;;;;16.25;16.25;;;;;9.63;70.70;99415.97;6245268;23;11839;-79
2021/01/28 00:45:24;;;;;;;;;11.75;11.00;;;;;9.50;71.01;99416.41;6227844;23;11426;-79
2021/01/28 00:47:52;;;;;;;;;13.50;13.50;;;;;9.48;70.82;99425.84;6227827;23;11408;-78
2021/01/28 00:50:47;;;;;;;;;21.00;17.00;;;;;9.46;70.96;99428.16;6244542;23;11428;-79
2021/01/28 00:53:43;;;;;;;;;13.50;13.25;;;;;9.28;71.87;99442.63;6243590;23;11439;-78
2021/01/28 00:56:39;;;;;;;;;16.75;16.75;;;;;9.45;71.19;99431.28;6243761;23;11512;-78
2021/01/28 00:59:34;;;;;;;;;16.50;16.50;;;;;9.53;70.46;99451.59;6225244;23;11431;-78
2021/01/28 01:02:02;;;;;;;;;16.50;16.25;;;;;9.53;70.39;99441.34;6229290;23;11420;-80
2021/01/28 01:04:59;;;;;;;;;15.50;15.50;;;;;9.23;70.79;99448.41;6225743;23;11407;-81
2021/01/28 01:07:56;;;;;;;;;17.50;17.50;;;;;9.40;71.24;99450.84;6244261;23;11436;-79
2021/01/28 01:10:54;;;;;;;;;18.00;18.00;;;;;9.47;70.37;99453.81;6225446;23;11518;-80
2021/01/28 01:13:50;;;;;;;;;17.50;17.50;;;;;9.38;70.85;99473.28;6244717;23;11413;-79
2021/01/28 01:16:46;;;;;;;;;31.75;31.75;;;;;9.34;70.89;99477.88;6245343;23;11445;-79
2021/01/28 01:19:32;;;;;;;;;28.75;28.75;;;;;9.45;70.89;99456.91;6225329;23;11568;-79
2021/01/28 01:22:27;;;;;;;;;26.50;26.50;;;;;9.34;70.86;99455.00;6245393;23;11444;-80
2021/01/28 01:24:55;;;;;;;;;25.00;25.00;;;;;9.44;70.86;99449.00;6229562;23;11504;-80
2021/01/28 01:27:51;;;;;;;;;16.50;15.75;;;;;9.22;71.43;99450.38;6245402;23;11442;-80
2021/01/28 01:30:46;;;;;;;;;19.25;19.25;;;;;9.29;71.24;99441.50;6225021;23;11490;-79
2021/01/28 01:33:42;;;;;;;;;18.50;18.50;;;;;9.29;71.21;99449.78;6245416;23;11423;-80
2021/01/28 01:36:09;;;;;;;;;16.00;16.00;;;;;9.28;71.14;99448.97;6255630;23;11422;-80
2021/01/28 01:38:44;;;;;;;;;20.50;19.25;;;;;9.12;71.39;99434.31;6255533;23;11435;-79
2021/01/28 01:41:11;;;;;;;;;24.75;21.00;;;;;9.13;71.18;99422.94;6255459;23;11410;-80
2021/01/28 01:44:01;;;;;;;;;19.00;17.75;;;;;8.93;71.56;99406.59;6246296;23;11434;-80
2021/01/28 01:47:20;;;;;;;;;11.75;11.75;;;;;8.90;71.20;99425.44;6245453;23;11431;-80
2021/01/28 01:50:05;;;;;;;;;18.25;18.25;;;;;9.18;70.09;99450.25;6223020;23;11439;-79
2021/01/28 01:53:03;;;;;;;;;20.00;16.50;;;;;9.23;70.22;99443.69;6246201;23;11443;-79
2021/01/28 01:55:32;;;;;;;;;20.00;20.00;;;;;9.20;70.45;99452.66;6245058;23;11462;-79
2021/01/28 01:58:11;;;;;;;;;18.00;18.00;;;;;9.26;70.18;99462.28;6253637;23;11400;-79
2021/01/28 02:00:39;;;;;;;;;28.75;28.25;;;;;9.24;70.10;99455.53;6239561;23;11423;-79
2021/01/28 02:03:12;;;;;;;;;27.25;26.50;;;;;9.18;69.88;99469.56;6255146;23;11466;-78
2021/01/28 02:06:19;;;;;;;;;22.75;22.75;;;;;9.24;70.44;99470.13;6264346;22;11550;-78
2021/01/28 02:09:15;;;;;;;;;33.75;31.50;;;;;9.26;70.10;99475.28;6262517;22;11487;-79
2021/01/28 02:11:43;;;;;;;;;25.50;25.50;;;;;9.14;70.74;99478.91;6253630;23;11535;-79
2021/01/28 02:14:13;;;;;;;;;24.00;24.00;;;;;9.16;70.28;99480.16;6255041;23;11540;-79
2021/01/28 02:16:57;;;;;;;;;25.50;25.50;;;;;9.25;70.08;99480.00;6246179;22;12643;-79
2021/01/28 02:19:52;;;;;;;;;30.75;30.75;;;;;9.31;70.16;99477.78;6253768;23;11476;-78
2021/01/28 02:22:42;;;;;;;;;35.00;35.00;;;;;9.26;69.84;99472.53;6244510;23;11487;-79
2021/01/28 02:25:25;;;;;;;;;22.25;22.00;;;;;9.04;70.30;99477.41;6253782;23;11491;-79
2021/01/28 02:27:59;;;;;;;;;22.00;22.00;;;;;9.11;69.99;99477.63;6245911;22;12135;-79
2021/01/28 02:30:28;;;;;;;;;19.50;19.50;;;;;9.13;69.21;99480.88;6244523;23;12174;-79
2021/01/28 02:33:01;;;;;;;;;23.00;22.50;;;;;8.85;70.17;99469.00;6246163;22;12257;-79
2021/01/28 02:35:49;;;;;;;;;20.75;20.00;;;;;8.97;69.46;99470.91;6244564;23;11465;-79
2021/01/28 02:38:17;;;;;;;;;29.00;29.00;;;;;8.72;70.42;99467.41;6255049;22;11590;-79
2021/01/28 02:41:02;;;;;;;;;24.75;24.75;;;;;8.83;70.00;99465.78;6275137;22;11539;-78
2021/01/28 02:43:58;;;;;;;;;25.25;22.25;;;;;8.85;69.86;99461.53;6245678;23;12261;-78
2021/01/28 02:46:34;;;;;;;;;16.50;16.50;;;;;9.00;68.80;99470.22;6268449;22;12252;-79
2021/01/28 02:49:30;;;;;;;;;21.25;21.25;;;;;8.92;68.97;99463.69;6245447;23;11546;-79
2021/01/28 02:52:26;;;;;;;;;24.25;24.25;;;;;8.73;69.29;99460.75;6245570;23;12173;-79
2021/01/28 02:55:22;;;;;;;;;25.50;23.25;;;;;8.88;69.04;99452.53;6245847;22;11531;-79
2021/01/28 02:57:58;;;;;;;;;27.50;27.25;;;;;8.89;68.71;99456.09;6254623;22;11516;-78
2021/01/28 03:00:53;;;;;;;;;44.75;41.50;;;;;8.88;68.69;99449.00;6245282;23;11526;-79
2021/01/28 03:03:52;;;;;;;;;26.50;26.25;;;;;8.72;68.96;99459.94;6224124;23;11601;-79
2021/01/28 03:06:20;;;;;;;;;25.00;24.50;;;;;8.76;68.81;99458.13;6254724;23;11505;-78
2021/01/28 03:09:16;;;;;;;;;25.75;24.75;;;;;8.38;69.39;99450.25;6244075;23;11517;-78
2021/01/28 03:11:51;;;;;;;;;25.25;25.25;;;;;8.48;69.42;99460.00;6254352;23;11489;-78
2021/01/28 03:14:47;;;;;;;;;27.75;27.75;;;;;8.18;70.05;99432.66;6244106;23;11516;-81
2021/01/28 03:17:42;;;;;;;;;31.50;29.00;;;;;8.17;69.73;99409.03;6224096;23;11575;-78
2021/01/28 03:20:38;;;;;;;;;26.00;23.25;;;;;8.20;69.10;99422.09;6244123;23;11611;-79
2021/01/28 03:23:34;;;;;;;;;30.00;27.25;;;;;8.47;68.39;99428.09;6225162;23;11510;-80
2021/01/28 03:26:32;;;;;;;;;23.50;22.75;;;;;8.17;68.88;99431.06;6244219;23;11486;-80
2021/01/28 03:29:00;;;;;;;;;24.50;22.75;;;;;8.39;67.89;99432.56;6254318;23;12187;-79
2021/01/28 03:31:49;;;;;;;;;24.75;24.25;;;;;8.50;68.11;99444.72;6224870;23;11482;-79
2021/01/28 03:34:17;;;;;;;;;28.00;28.00;;;;;8.59;68.01;99442.66;6254409;23;11481;-79
2021/01/28 03:37:02;;;;;;;;;29.25;29.00;;;;;8.57;67.71;99446.88;6254420;23;11509;-79
2021/01/28 03:39:30;;;;;;;;;29.25;28.75;;;;;8.24;68.75;99445.06;6219088;23;11487;-79
2021/01/28 03:42:02;;;;;;;;;34.00;29.00;;;;;8.34;68.67;99438.28;6253839;23;11512;-79
2021/01/28 03:44:31;;;;;;;;;40.00;38.00;;;;;8.06;69.58;99425.22;6254189;23;11500;-79
2021/01/28 03:47:23;;;;;;;;;33.75;30.00;;;;;8.04;69.41;99427.50;6245178;23;11515;-80
2021/01/28 03:50:22;;;;;;;;;29.50;29.25;;;;;7.98;69.46;99417.09;6225120;23;11497;-80
2021/01/28 03:53:17;;;;;;;;;37.75;36.50;;;;;8.20;69.18;99410.28;6244630;23;11476;-81
2021/01/28 03:56:14;;;;;;;;;31.50;26.50;;;;;8.07;69.31;99417.78;6243874;23;11476;-79
2021/01/28 03:59:10;;;;;;;;;38.25;35.75;;;;;8.28;69.46;99426.72;6243700;23;11553;-78
2021/01/28 04:01:40;;;;;;;;;30.50;29.75;;;;;8.35;68.59;99443.47;6254187;23;11508;-80
2021/01/28 04:04:36;;;;;;;;;27.50;27.50;;;;;8.40;68.66;99447.94;6223783;23;11504;-78
2021/01/28 04:07:04;;;;;;;;;30.50;29.00;;;;;8.39;68.90;99457.38;6254102;23;11475;-78
2021/01/28 04:09:59;;;;;;;;;28.50;28.50;;;;;8.29;68.90;99468.84;6244198;23;11569;-79
2021/01/28 04:12:27;;;;;;;;;31.00;30.00;;;;;8.38;69.08;99466.78;6254106;23;11571;-79
2021/01/28 04:15:17;;;;;;;;;32.50;32.00;;;;;8.40;69.08;99466.44;6244785;23;11464;-78
2021/01/28 04:17:59;;;;;;;;;28.50;28.00;;;;;8.46;68.98;99467.81;6220710;23;12245;-78
2021/01/28 04:20:31;;;;;;;;;33.75;33.00;;;;;8.53;68.80;99460.56;6245013;23;11608;-78
2021/01/28 04:23:20;;;;;;;;;36.75;35.00;;;;;8.55;68.39;99451.94;6245649;23;11494;-78
2021/01/28 04:26:16;;;;;;;;;30.25;30.25;;;;;8.65;68.19;99454.22;6224549;23;11590;-79
2021/01/28 04:28:44;;;;;;;;;23.75;21.75;;;;;8.80;67.84;99452.69;6254274;23;11520;-78
2021/01/28 04:31:39;;;;;;;;;34.50;32.25;;;;;8.83;67.53;99454.75;6244488;23;11698;-78
2021/01/28 04:34:35;;;;;;;;;34.00;30.00;;;;;8.81;67.80;99437.75;6245492;23;11567;-79
2021/01/28 04:37:07;;;;;;;;;38.50;38.00;;;;;8.73;68.21;99452.47;6256219;23;11523;-78
2021/01/28 04:39:51;;;;;;;;;27.75;27.75;;;;;8.74;67.79;99457.66;6255801;23;11510;-78
2021/01/28 04:42:28;;;;;;;;;30.25;30.25;;;;;8.83;67.56;99471.31;6255999;23;11526;-78
2021/01/28 04:45:26;;;;;;;;;30.00;28.75;;;;;8.87;67.45;99469.44;6246373;23;11572;-78
2021/01/28 04:48:05;;;;;;;;;29.75;28.00;;;;;8.92;66.98;99474.72;6231208;23;11547;-78
2021/01/28 04:50:38;;;;;;;;;54.00;44.75;;;;;9.08;66.10;99455.47;6255361;23;11482;-78
2021/01/28 04:53:24;;;;;;;;;78.50;59.75;;;;;8.93;66.72;99445.19;6246417;23;11594;-78
2021/01/28 04:56:17;;;;;;;;;56.75;48.75;;;;;8.84;67.60;99451.66;6247382;23;11548;-78
2021/01/28 04:58:45;;;;;;;;;37.50;32.50;;;;;9.05;67.28;99473.53;6246934;23;11555;-77
2021/01/28 05:01:21;;;;;;;;;28.25;28.25;;;;;8.90;67.25;99475.06;6254410;23;11490;-79
2021/01/28 05:03:54;;;;;;;;;60.00;48.75;;;;;9.17;73.18;99473.47;6255549;23;11494;-80
2021/01/28 05:06:31;;;;;;;;;22.00;22.00;;;;;10.01;72.78;99495.44;6255178;23;11578;-79
2021/01/28 05:09:27;;;;;;;;;40.25;39.00;;;;;10.01;71.09;99497.41;6245128;23;11480;-79
2021/01/28 05:12:22;;;;;;;;;33.00;31.25;;;;;10.25;74.12;99511.06;6245396;23;11521;-78
2021/01/28 05:14:50;;;;;;;;;33.50;32.50;;;;;10.20;71.48;99503.03;6255373;23;11559;-78
2021/01/28 05:17:57;;;;;;;;;31.50;27.50;;;;;10.15;68.90;99521.84;6244293;23;12169;-80
2021/01/28 05:20:47;;;;;;;;;52.25;40.50;;;;;10.53;74.01;99524.00;6228154;23;11433;-80
2021/01/28 05:23:43;;;;;;;;;33.00;31.00;;;;;10.49;70.31;99525.84;6245531;23;11484;-79
2021/01/28 05:26:31;;;;;;;;;35.75;35.75;;;;;10.37;67.87;99514.91;6245208;23;11526;-79
2021/01/28 05:29:12;;;;;;;;;38.25;37.50;;;;;10.26;70.66;99507.16;6229518;23;11514;-79
2021/01/28 05:31:40;;;;;;;;;40.75;37.50;;;;;10.24;68.30;99509.47;6229388;23;11421;-79
2021/01/28 05:34:12;;;;;;;;;30.25;29.25;;;;;10.26;68.40;99503.59;6255501;23;11525;-80
2021/01/28 05:36:55;;;;;;;;;56.00;46.00;;;;;10.29;68.87;99511.97;6255577;23;11441;-80
2021/01/28 05:39:33;;;;;;;;;31.75;31.25;;;;;10.32;68.96;99526.22;6229055;23;11484;-80
2021/01/28 05:42:29;;;;;;;;;31.50;30.00;;;;;10.25;67.76;99535.13;6245230;23;11458;-80
2021/01/28 05:45:40;;;;;;;;;53.25;46.00;;;;;10.34;68.64;99523.91;6244845;23;11430;-80
2021/01/28 05:48:36;;;;;;;;;26.50;26.50;;;;;10.08;67.90;99539.03;6244822;23;11492;-79
2021/01/28 05:51:41;;;;;;;;;23.75;23.75;;;;;10.12;67.93;99530.81;6243836;23;11429;-79
2021/01/28 05:54:37;;;;;;;;;28.50;27.00;;;;;10.03;67.34;99525.47;6225044;23;11514;-80
2021/01/28 05:57:38;;;;;;;;;28.00;26.75;;;;;9.93;68.77;99537.06;6244800;23;11452;-80
2021/01/28 06:00:53;;;;;;;;;30.75;29.50;;;;;9.84;68.42;99542.75;6244548;23;11475;-79
2021/01/28 06:04:04;;;;;;;;;27.00;27.00;;;;;9.86;67.48;99523.06;6245679;23;11504;-81
2021/01/28 06:07:37;;;;;;;;;39.25;37.00;;;;;9.96;68.77;99517.78;6244651;23;11449;-80
2021/01/28 06:11:08;;;;;;;;;38.75;37.25;;;;;9.95;66.96;99534.72;6224510;23;11671;-80
2021/01/28 06:14:17;;;;;;;;;35.50;35.00;;;;;9.93;68.11;99526.00;6222111;23;11598;-80
2021/01/28 06:17:25;;;;;;;;;35.50;32.75;;;;;9.90;67.18;99546.06;6225446;23;11494;-80
2021/01/28 06:20:27;;;;;;;;;30.25;30.25;;;;;9.85;66.53;99554.59;6244595;23;11417;-79
2021/01/28 06:23:47;;;;;;;;;32.25;31.25;;;;;9.91;67.31;99562.25;6244544;23;11509;-79
2021/01/28 06:27:01;;;;;;;;;38.25;34.75;;;;;10.16;68.12;99578.69;6244467;23;11519;-80
2021/01/28 06:30:21;;;;;;;;;41.00;38.25;;;;;10.19;69.65;99570.47;6244002;23;12274;-80
2021/01/28 06:33:23;;;;;;;;;32.50;28.25;;;;;10.26;66.12;99589.25;6244126;23;11571;-78
2021/01/28 06:36:03;;;;;;;;;34.00;31.25;;;;;10.89;74.59;99586.47;6228445;23;11452;-80
2021/01/28 06:39:04;;;;;;;;;32.00;32.00;;;;;11.32;75.79;99590.97;6245884;23;11457;-80
2021/01/28 06:41:41;;;;;;;;;38.25;35.00;;;;;11.22;71.20;99604.59;6228294;23;11426;-81
2021/01/28 06:44:50;;;;;;;;;32.25;31.00;;;;;10.79;67.18;99612.69;6245259;23;11525;-78
2021/01/28 06:47:35;;;;;;;;;19.50;18.75;;;;;9.93;68.88;99615.19;6254808;23;11412;-79
2021/01/28 06:50:30;;;;;;;;;23.25;23.25;;;;;10.08;72.73;99613.63;6254507;23;11428;-81
2021/01/28 06:53:10;;;;;;;;;24.25;24.25;;;;;10.62;73.23;99593.72;6254550;23;11429;-78
2021/01/28 06:56:09;;;;;;;;;23.75;23.25;;;;;10.36;71.49;99604.50;6245489;23;11507;-80
2021/01/28 06:59:14;;;;;;;;;26.00;21.50;;;;;10.40;71.25;99600.66;6254946;23;11443;-80
2021/01/28 07:02:12;;;;;;;;;19.75;19.75;;;;;9.60;68.76;99598.06;6248617;23;11461;-79
2021/01/28 07:05:11;;;;;;;;;26.00;23.50;;;;;9.35;69.09;99602.84;6254509;23;11433;-77
2021/01/28 07:08:21;;;;;;;;;21.00;21.00;;;;;9.31;69.94;99611.03;6243925;23;11536;-78
2021/01/28 07:10:48;;;;;;;;;20.75;20.75;;;;;9.15;70.37;99608.19;6254315;23;11423;-78
2021/01/28 07:13:22;;;;;;;;;16.50;16.50;;;;;9.23;70.51;99602.88;6254405;23;11413;-78
2021/01/28 07:15:57;;;;;;;;;21.50;21.50;;;;;9.10;70.24;99594.63;6254408;23;11438;-78
2021/01/28 07:18:35;;;;;;;;;13.50;12.25;;;;;9.03;71.07;99588.09;6254382;23;11409;-77
2021/01/28 07:21:10;;;;;;;;;16.75;16.75;;;;;9.11;70.89;99592.66;6253800;23;12154;-77
2021/01/28 07:23:40;;;;;;;;;15.00;15.00;;;;;9.16;70.36;99587.72;6227801;23;11399;-77
2021/01/28 07:26:18;;;;;;;;;18.00;18.00;;;;;9.18;70.67;99573.56;6253403;23;11415;-77
2021/01/28 07:28:47;;;;;;;;;28.25;26.25;;;;;9.26;70.57;99569.88;6253315;23;11510;-78
2021/01/28 07:31:47;;;;;;;;;24.00;21.75;;;;;9.23;71.42;99575.31;6244391;23;11488;-78
2021/01/28 07:34:42;;;;;;;;;18.00;17.75;;;;;9.40;70.19;99575.00;6243944;23;11494;-78
2021/01/28 07:37:24;;;;;;;;;17.00;17.00;;;;;9.27;70.62;99576.19;6253379;23;11420;-77
2021/01/28 07:39:51;;;;;;;;;19.25;19.25;;;;;9.35;70.49;99567.78;6253399;23;11430;-77
2021/01/28 07:43:01;;;;;;;;;15.50;15.50;;;;;9.33;70.86;99564.56;6243505;23;11450;-76
2021/01/28 07:45:32;;;;;;;;;19.75;19.25;;;;;9.35;70.12;99564.22;6253351;23;11428;-76
2021/01/28 07:48:00;;;;;;;;;16.75;13.50;;;;;9.38;69.98;99560.78;6253386;23;11417;-76
2021/01/28 07:50:34;;;;;;;;;15.50;15.00;;;;;9.48;69.62;99552.00;6253588;23;11412;-77
2021/01/28 07:53:36;;;;;;;;;17.00;17.00;;;;;9.50;69.59;99552.44;6253581;23;11438;-77
2021/01/28 07:56:42;;;;;;;;;19.75;16.00;;;;;9.43;69.57;99555.81;6243921;23;11468;-77
2021/01/28 07:59:39;;;;;;;;;16.75;16.75;;;;;9.63;69.25;99559.50;6250954;23;11472;-79
2021/01/28 08:02:36;;;;;;;;;16.50;16.50;;;;;9.56;69.16;99555.75;6242797;23;11474;-78
2021/01/28 08:05:04;;;;;;;;;19.50;17.50;;;;;9.51;69.32;99559.59;6253102;23;11406;-78
2021/01/28 08:07:39;;;;;;;;;19.75;19.75;;;;;9.56;69.09;99578.63;6252916;23;11446;-78
2021/01/28 08:10:18;;;;;;;;;17.00;17.00;;;;;9.64;68.44;99590.69;6226677;23;11265;-78
2021/01/28 08:12:52;;;;;;;;;13.00;12.50;;;;;9.63;67.91;99594.59;6244668;23;11415;-79
2021/01/28 08:15:42;;;;;;;;;12.50;11.00;;;;;9.47;68.23;99602.81;6253371;23;11371;-77
2021/01/28 08:18:31;;;;;;;;;15.50;15.50;;;;;9.47;68.14;99617.44;6253307;23;11365;-77
2021/01/28 08:21:27;;;;;;;;;10.00;10.00;;;;;9.41;68.61;99616.06;6242984;23;11162;-78
2021/01/28 08:24:35;;;;;;;;;14.00;14.00;;;;;9.45;68.39;99607.91;6242970;23;11411;-78
2021/01/28 08:27:38;;;;;;;;;12.75;11.00;;;;;9.18;69.28;99623.22;6243014;23;11410;-77
2021/01/28 08:30:10;;;;;;;;;13.00;13.00;;;;;9.32;69.55;99631.94;6253217;23;11427;-77
2021/01/28 08:32:37;;;;;;;;;9.00;9.00;;;;;9.36;68.70;99654.16;6253268;23;11422;-77
2021/01/28 08:35:22;;;;;;;;;9.00;9.00;;;;;9.40;68.61;99646.75;6253175;23;11562;-77
2021/01/28 08:37:50;;;;;;;;;11.50;11.50;;;;;9.24;68.80;99654.16;6242543;23;11428;-77
2021/01/28 08:40:21;;;;;;;;;10.00;10.00;;;;;9.31;68.38;99657.94;6253868;23;12171;-78
2021/01/28 08:43:08;;;;;;;;;11.50;11.50;;;;;9.35;68.29;99658.03;6253893;23;11381;-77
2021/01/28 08:46:11;;;;;;;;;13.25;13.00;;;;;9.39;68.33;99651.47;6243400;23;11430;-78
2021/01/28 08:48:40;;;;;;;;;7.75;7.75;;;;;9.32;68.56;99648.50;6212130;23;11431;-79
2021/01/28 08:51:23;;;;;;;;;9.00;9.00;;;;;9.25;68.90;99661.28;6217506;23;11383;-77
2021/01/28 08:54:37;;;;;;;;;8.00;8.00;;;;;9.36;67.93;99662.41;6224201;23;12079;-79
2021/01/28 08:57:33;;;;;;;;;11.00;11.00;;;;;9.25;67.33;99664.84;6241834;23;11445;-79
2021/01/28 09:00:29;;;;;;;;;7.00;7.00;;;;;9.39;66.37;99662.50;6243441;23;12230;-78
2021/01/28 09:03:18;;;;;;;;;3.50;3.50;;;;;9.38;65.02;99662.88;6220680;23;11398;-77
2021/01/28 09:05:46;;;;;;;;;5.50;5.00;;;;;9.12;64.83;99660.47;6252150;23;12102;-78
2021/01/28 09:08:43;;;;;;;;;2.00;2.00;;;;;8.94;64.24;99672.91;6242598;23;11423;-78
2021/01/28 09:11:38;;;;;;;;;2.00;2.00;;;;;8.93;65.03;99666.56;6242616;23;11377;-78
2021/01/28 09:14:35;;;;;;;;;7.75;7.75;;;;;9.14;63.76;99660.94;6242867;23;12060;-77
2021/01/28 09:17:31;;;;;;;;;5.00;5.00;;;;;9.41;63.18;99657.44;6222815;23;12273;-77
2021/01/28 09:20:01;;;;;;;;;6.00;6.00;;;;;9.64;62.93;99656.94;6254653;23;11448;-78
2021/01/28 09:22:32;;;;;;;;;14.25;13.00;;;;;9.80;61.96;99673.56;6254694;23;11249;-77
2021/01/28 09:25:03;;;;;;;;;7.25;7.25;;;;;9.93;61.15;99673.19;6254805;23;11415;-77
2021/01/28 09:27:36;;;;;;;;;4.50;3.25;;;;;10.22;60.10;99672.06;6203707;23;11171;-78
2021/01/28 09:30:36;;;;;;;;;3.00;3.00;;;;;10.81;59.46;99692.53;6254536;23;11022;-78
2021/01/28 09:33:23;;;;;;;;;2.00;2.00;;;;;10.64;58.33;99696.44;6221150;23;10885;-78
2021/01/28 09:36:20;;;;;;;;;3.25;3.25;;;;;10.07;59.33;99685.78;6229401;23;10960;-78
2021/01/28 09:39:04;;;;;;;;;4.25;4.25;;;;;10.05;59.61;99691.69;6245393;23;10655;-78
2021/01/28 09:42:31;;;;;;;;;4.25;4.25;;;;;10.14;58.91;99684.03;6245029;23;10867;-77
2021/01/28 09:45:04;;;;;;;;;4.25;4.25;;;;;9.72;59.83;99675.31;6192537;23;10829;-78
2021/01/28 09:47:34;;;;;;;;;3.00;3.00;;;;;10.14;58.57;99670.22;6255341;23;10707;-78
2021/01/28 09:50:11;;;;;;;;;5.25;5.25;;;;;10.01;58.91;99666.69;6255085;23;11077;-78
2021/01/28 09:53:06;;;;;;;;;7.00;4.25;;;;;10.24;57.76;99661.44;6244977;23;11028;-78
2021/01/28 09:55:51;;;;;;;;;5.25;5.25;;;;;10.36;56.68;99659.78;6246175;23;11212;-78
2021/01/28 09:58:19;;;;;;;;;3.50;3.50;;;;;10.54;56.41;99638.94;6195104;23;11054;-78
2021/01/28 10:01:01;;;;;;;;;2.50;2.50;;;;;10.55;54.95;99646.06;6241214;23;11014;-79
2021/01/28 10:03:42;;;;;;;;;4.00;4.00;;;;;10.80;57.46;99611.53;6246684;22;10696;-79
2021/01/28 10:06:23;;;;;;;;;8.00;8.00;;;;;10.75;56.91;99622.88;6246420;22;11421;-79
2021/01/28 10:09:07;;;;;;;;;3.00;3.00;;;;;10.20;57.70;99613.56;6246671;22;10910;-79
2021/01/28 10:11:35;;;;;;;;;6.00;6.00;;;;;10.89;55.52;99614.13;6244954;23;10676;-79
2021/01/28 10:14:04;;;;;;;;;5.00;5.00;;;;;10.95;55.57;99628.47;6253675;23;10788;-78
2021/01/28 10:16:32;;;;;;;;;2.25;2.25;;;;;10.81;55.01;99627.00;6255159;22;10694;-78
2021/01/28 10:19:01;;;;;;;;;6.50;6.50;;;;;10.66;56.80;99638.03;6253514;23;10624;-79
2021/01/28 10:21:29;;;;;;;;;5.00;3.25;;;;;10.34;57.73;99646.28;6244811;23;10603;-79
2021/01/28 10:23:56;;;;;;;;;6.25;6.25;;;;;10.48;56.89;99648.63;6269930;22;10778;-78
2021/01/28 10:26:51;;;;;;;;;4.00;4.00;;;;;10.23;57.26;99651.56;6245722;23;10771;-79
2021/01/28 10:29:37;;;;;;;;;6.25;6.25;;;;;9.93;58.24;99659.38;6246486;23;10930;-79
2021/01/28 10:32:09;;;;;;;;;3.00;3.00;;;;;10.01;57.92;99660.38;6254692;22;10640;-78
2021/01/28 10:34:45;;;;;;;;;7.50;7.50;;;;;10.13;58.07;99676.09;6253639;23;10710;-80
2021/01/28 10:37:41;;;;;;;;;3.75;3.75;;;;;9.95;56.11;99667.28;6246053;22;10927;-77
2021/01/28 10:40:09;;;;;;;;;5.00;5.00;;;;;9.84;56.46;99661.47;6278581;22;11839;-77
2021/01/28 10:42:47;;;;;;;;;4.00;4.00;;;;;9.88;55.95;99647.75;6255065;22;11001;-79
2021/01/28 10:45:25;;;;;;;;;5.50;5.50;;;;;9.89;55.76;99646.59;6253663;23;11123;-78
2021/01/28 10:48:11;;;;;;;;;4.50;4.50;;;;;9.89;56.30;99674.22;6246625;23;10952;-79
2021/01/28 10:50:39;;;;;;;;;6.75;6.75;;;;;9.75;55.86;99691.19;6254596;22;11500;-76
2021/01/28 10:53:08;;;;;;;;;2.75;2.75;;;;;9.51;57.25;99686.53;6244190;23;10949;-80
2021/01/28 10:55:37;;;;;;;;;5.00;5.00;;;;;9.62;56.09;99676.63;6246101;22;11021;-79
2021/01/28 10:58:32;;;;;;;;;3.00;3.00;;;;;9.25;56.88;99689.66;6243319;23;11406;-80
2021/01/28 11:00:59;;;;;;;;;5.00;5.00;;;;;9.18;57.93;99701.28;6245480;23;11083;-79
2021/01/28 11:03:55;;;;;;;;;2.25;2.25;;;;;9.05;57.38;99707.16;6245324;23;11889;-78
2021/01/28 11:06:50;;;;;;;;;3.00;3.00;;;;;9.14;58.33;99699.56;6245235;23;11425;-77
2021/01/28 11:09:46;;;;;;;;;6.00;6.00;;;;;9.31;57.46;99715.88;6244964;23;11400;-76
2021/01/28 11:12:27;;;;;;;;;4.00;4.00;;;;;9.30;56.99;99719.78;6245769;23;11419;-77
2021/01/28 11:14:54;;;;;;;;;3.00;2.00;;;;;8.91;58.60;99707.50;6245657;22;11413;-77
2021/01/28 11:17:50;;;;;;;;;4.00;4.00;;;;;9.14;58.18;99727.16;6244738;23;11412;-77
2021/01/28 11:20:22;;;;;;;;;6.50;6.50;;;;;8.84;58.84;99719.06;6253998;22;11490;-76
2021/01/28 11:23:03;;;;;;;;;3.00;3.00;;;;;8.72;59.37;99721.00;6245481;22;11391;-78
2021/01/28 11:25:59;;;;;;;;;2.00;2.00;;;;;8.97;59.44;99710.81;6245174;22;11426;-77
2021/01/28 11:28:55;;;;;;;;;6.00;6.00;;;;;8.99;60.02;99717.59;6244746;23;11447;-77
2021/01/28 11:31:51;;;;;;;;;4.50;4.50;;;;;8.87;59.69;99695.53;6245133;23;11389;-76
2021/01/28 11:34:33;;;;;;;;;7.25;7.25;;;;;9.06;59.22;99693.00;6244884;23;11440;-77
2021/01/28 11:37:14;;;;;;;;;5.00;5.00;;;;;9.06;59.95;99706.81;6245282;22;11456;-76
2021/01/28 11:39:57;;;;;;;;;4.50;4.50;;;;;9.09;58.57;99722.66;6254014;23;11398;-76
2021/01/28 11:43:08;;;;;;;;;5.00;5.00;;;;;8.85;59.14;99725.41;6244589;23;11362;-76
2021/01/28 11:46:03;;;;;;;;;6.25;6.25;;;;;8.94;58.80;99728.03;6244849;22;11502;-76
2021/01/28 11:48:30;;;;;;;;;4.00;4.00;;;;;8.82;57.96;99709.56;6254174;23;12122;-76
2021/01/28 11:50:57;;;;;;;;;2.75;2.75;;;;;8.80;57.77;99692.53;6253774;23;11398;-76
2021/01/28 11:53:38;;;;;;;;;3.00;3.00;;;;;8.83;57.47;99678.06;6244907;22;11445;-76
2021/01/28 11:56:05;;;;;;;;;2.75;2.75;;;;;8.89;57.82;99684.94;6254105;23;11465;-76
2021/01/28 11:58:46;;;;;;;;;1.50;1.50;;;;;8.69;58.05;99710.66;6245202;22;11431;-78
2021/01/28 12:01:14;;;;;;;;;2.25;2.25;;;;;8.54;58.00;99718.44;6245068;22;11392;-76
2021/01/28 12:03:41;;;;;;;;;3.00;3.00;;;;;8.60;58.95;99711.56;6253965;23;11404;-76
2021/01/28 12:06:08;;;;;;;;;3.00;3.00;;;;;8.66;58.52;99723.16;6227721;23;11375;-77
2021/01/28 12:08:45;;;;;;;;;2.75;2.75;;;;;8.57;58.42;99728.78;6253402;23;11388;-76
2021/01/28 12:11:13;;;;;;;;;6.00;6.00;;;;;8.54;58.37;99731.41;6227600;23;11443;-77
2021/01/28 12:14:09;;;;;;;;;2.00;2.00;;;;;8.36;58.68;99741.81;6245005;23;11419;-75
2021/01/28 12:16:37;;;;;;;;;2.75;2.50;;;;;8.30;59.39;99748.66;6254012;23;11347;-78
2021/01/28 12:19:04;;;;;;;;;4.00;4.00;;;;;8.40;59.23;99755.72;6254039;23;11371;-77
2021/01/28 12:21:39;;;;;;;;;1.25;1.25;;;;;8.64;58.24;99767.59;6230242;23;11384;-77
2021/01/28 12:24:35;;;;;;;;;2.50;2.50;;;;;8.67;58.06;99781.88;6243606;23;12139;-77
2021/01/28 12:27:31;;;;;;;;;5.00;5.00;;;;;8.61;57.71;99792.31;6243787;23;12161;-76
2021/01/28 12:30:27;;;;;;;;;4.00;4.00;;;;;8.57;58.31;99792.16;6243269;23;11405;-75
2021/01/28 12:33:23;;;;;;;;;3.00;3.00;;;;;8.63;58.32;99796.31;6223477;23;11406;-75
2021/01/28 12:36:13;;;;;;;;;2.75;2.75;;;;;8.57;58.50;99807.88;6223330;23;11371;-76
2021/01/28 12:38:54;;;;;;;;;2.00;2.00;;;;;8.46;57.43;99796.50;6244546;23;12129;-77
2021/01/28 12:41:22;;;;;;;;;2.50;2.50;;;;;8.59;57.86;99795.41;6253911;23;12097;-78
2021/01/28 12:44:18;;;;;;;;;2.00;2.00;;;;;8.47;56.68;99792.59;6244383;23;11382;-77
2021/01/28 12:47:00;;;;;;;;;1.25;1.25;;;;;8.74;56.77;99777.41;6245072;23;11401;-76
2021/01/28 12:49:28;;;;;;;;;2.00;2.00;;;;;8.82;55.78;99773.75;6254133;23;11437;-75
2021/01/28 12:52:09;;;;;;;;;2.50;2.50;;;;;8.80;56.29;99772.47;6244209;23;11413;-76